Time;durP1;ratioP1;P1;durP2;ratioP2;P2;SDS_P1;SDS_P2;PMS_P1;PMS_P2;Temp;Humidity;BMP_temperature;BMP_pressure;BME280_temperature;BME280_humidity;BME280_pressure;Samples;Min_cycle;Max_cycle;Signal;HPM_P1;HPM_P2
2021/06/15 00:02:19;;;;;;;;;;;;;;;25.81;42.93;100421.41;4999614;28;811;-34
2021/06/15 00:04:45;;;;;;;;;;;;;;;25.83;42.90;100415.84;4999062;28;868;-33
2021/06/15 00:07:10;;;;;;;;;;;;;;;25.83;42.76;100415.84;4999319;28;795;-37
2021/06/15 00:09:35;;;;;;;;;;;;;;;25.82;43.07;100415.03;5011294;28;1894;-33
2021/06/15 00:12:02;;;;;;;;;;;;;;;25.77;43.28;100409.34;5038682;28;810;-37
2021/06/15 00:14:28;;;;;;;;;;;;;;;25.82;43.13;100409.63;5032947;28;1086;-33
2021/06/15 00:16:56;;;;;;;;;;;;;;;25.82;43.15;100406.09;4999235;28;825;-36
2021/06/15 00:19:21;;;;;;;;;;;;;;;25.84;43.17;100407.56;4999127;28;820;-36
2021/06/15 00:21:46;;;;;;;;;;;;;;;25.87;42.99;100401.84;4998934;28;880;-32
2021/06/15 00:24:12;;;;;;;;;;;;;;;25.84;43.01;100401.38;4999481;28;780;-36
2021/06/15 00:26:37;;;;;;;;;;;;;;;25.89;42.67;100407.88;4998120;28;799;-36
2021/06/15 00:29:02;;;;;;;;;;;;;;;25.91;42.91;100407.69;4998195;28;1969;-37
2021/06/15 00:31:27;;;;;;;;;;;;;;;25.87;43.02;100407.22;4998658;28;957;-35
2021/06/15 00:33:53;;;;;;;;;;;;;;;25.88;43.00;100408.91;4998760;28;768;-32
2021/06/15 00:36:19;;;;;;;;;;;;;;;25.92;42.72;100395.91;4998885;28;797;-37
2021/06/15 00:38:44;;;;;;;;;;;;;;;25.84;42.96;100398.69;4999011;28;795;-35
2021/06/15 00:41:09;;;;;;;;;;;;;;;25.86;42.83;100405.53;4998438;28;848;-31
2021/06/15 00:43:34;;;;;;;;;;;;;;;25.86;42.96;100399.34;4998460;28;753;-34
2021/06/15 00:46:00;;;;;;;;;;;;;;;25.88;42.96;100394.56;4998239;28;1008;-37
2021/06/15 00:48:29;;;;;;;;;;;;;;;25.88;42.93;100399.97;4998436;28;1956;-29
2021/06/15 00:50:54;;;;;;;;;;;;;;;25.89;42.80;100390.88;4981110;28;788;-33
2021/06/15 00:53:19;;;;;;;;;;;;;;;25.91;42.90;100394.22;4981585;28;772;-37
2021/06/15 00:55:45;;;;;;;;;;;;;;;25.91;43.15;100400.44;4998212;28;770;-32
2021/06/15 00:58:10;;;;;;;;;;;;;;;25.92;42.92;100404.81;4980872;28;768;-34
2021/06/15 01:00:35;;;;;;;;;;;;;;;25.89;42.89;100407.88;4997621;28;958;-32
2021/06/15 01:03:00;;;;;;;;;;;;;;;25.91;42.91;100399.59;4999041;28;800;-36
2021/06/15 01:05:26;;;;;;;;;;;;;;;25.89;43.13;100402.47;4980606;28;833;-37
2021/06/15 01:07:54;;;;;;;;;;;;;;;25.89;42.92;100404.34;4998153;28;796;-36
2021/06/15 01:10:38;;;;;;;;;;;;;;;25.89;43.27;100409.75;5021922;28;1906;-33
2021/06/15 01:13:05;;;;;;;;;;;;;;;25.87;43.42;100396.47;5019773;28;796;-37
2021/06/15 01:15:51;;;;;;;;;;;;;;;25.90;43.46;100396.09;4997150;28;1444;-38
2021/06/15 01:18:17;;;;;;;;;;;;;;;25.93;43.01;100397.56;4987610;28;1773;-32
2021/06/15 01:20:53;;;;;;;;;;;;;;;25.94;42.97;100401.94;4980108;28;824;-38
2021/06/15 01:23:37;;;;;;;;;;;;;;;25.90;43.29;100395.25;4980242;28;849;-28
2021/06/15 01:26:06;;;;;;;;;;;;;;;25.89;43.37;100394.41;4997866;28;852;-33
2021/06/15 01:28:31;;;;;;;;;;;;;;;25.87;43.41;100387.53;4997561;28;1969;-38
2021/06/15 01:30:56;;;;;;;;;;;;;;;25.84;43.55;100396.78;4997654;28;969;-33
2021/06/15 01:33:22;;;;;;;;;;;;;;;25.90;43.23;100389.84;4998043;28;791;-38
2021/06/15 01:35:47;;;;;;;;;;;;;;;25.88;43.66;100398.13;4980107;28;819;-33
2021/06/15 01:38:13;;;;;;;;;;;;;;;25.87;43.79;100403.69;4980087;28;776;-33
2021/06/15 01:41:01;;;;;;;;;;;;;;;25.88;43.58;100395.44;4980182;28;1383;-35
2021/06/15 01:43:43;;;;;;;;;;;;;;;25.89;43.44;100396.28;4989200;28;1436;-31
2021/06/15 01:46:08;;;;;;;;;;;;;;;25.88;43.24;100397.28;4997192;28;1020;-30
2021/06/15 01:49:08;;;;;;;;;;;;;;;25.86;43.56;100402.84;4979907;28;1959;-37
2021/06/15 01:51:33;;;;;;;;;;;;;;;25.88;43.40;100398.13;4964874;28;1188;-37
2021/06/15 01:54:00;;;;;;;;;;;;;;;25.89;43.32;100401.66;4979969;28;828;-37
2021/06/15 01:56:28;;;;;;;;;;;;;;;25.92;43.47;100398.59;4980163;28;784;-32
2021/06/15 01:58:54;;;;;;;;;;;;;;;25.93;43.61;100400.25;4979740;28;789;-37
2021/06/15 02:01:19;;;;;;;;;;;;;;;25.90;43.47;100387.16;4997482;28;1004;-35
2021/06/15 02:03:45;;;;;;;;;;;;;;;25.89;43.50;100394.41;4979795;28;792;-34
2021/06/15 02:06:10;;;;;;;;;;;;;;;25.89;43.53;100394.41;4996804;28;848;-37
2021/06/15 02:08:36;;;;;;;;;;;;;;;25.94;43.42;100390.31;4979748;28;1902;-32
2021/06/15 02:11:03;;;;;;;;;;;;;;;25.95;43.42;100381.22;5020575;28;1149;-35
2021/06/15 02:13:29;;;;;;;;;;;;;;;25.89;43.45;100388.19;5016476;28;848;-35
2021/06/15 02:15:55;;;;;;;;;;;;;;;25.94;43.70;100390.31;5002442;28;1328;-35
2021/06/15 02:18:21;;;;;;;;;;;;;;;25.92;43.62;100375.16;4979508;28;1285;-35
2021/06/15 02:20:46;;;;;;;;;;;;;;;25.90;43.64;100385.31;4996827;28;878;-33
2021/06/15 02:23:12;;;;;;;;;;;;;;;25.90;43.69;100387.16;4997374;28;727;-35
2021/06/15 02:25:38;;;;;;;;;;;;;;;25.88;43.63;100398.13;4997091;28;796;-32
2021/06/15 02:28:03;;;;;;;;;;;;;;;25.89;43.40;100399.78;4979214;28;745;-36
2021/06/15 02:30:29;;;;;;;;;;;;;;;25.89;43.51;100388.19;4979206;28;1914;-36
2021/06/15 02:32:55;;;;;;;;;;;;;;;25.91;43.51;100392.34;4979593;28;967;-33
2021/06/15 02:35:21;;;;;;;;;;;;;;;25.90;43.29;100389.84;4996377;28;923;-35
2021/06/15 02:37:48;;;;;;;;;;;;;;;25.89;43.50;100386.31;4979070;28;829;-31
2021/06/15 02:40:14;;;;;;;;;;;;;;;25.89;43.51;100380.09;4997040;28;831;-36
2021/06/15 02:42:42;;;;;;;;;;;;;;;25.93;43.30;100384.09;4996999;28;800;-35
2021/06/15 02:45:08;;;;;;;;;;;;;;;25.95;43.32;100390.13;4978854;28;962;-32
2021/06/15 02:47:33;;;;;;;;;;;;;;;25.90;43.34;100384.47;4997153;28;722;-37
2021/06/15 02:49:59;;;;;;;;;;;;;;;25.91;43.26;100388.81;4979201;28;1902;-36
2021/06/15 02:52:35;;;;;;;;;;;;;;;25.92;43.42;100383.25;5000919;28;777;-31
2021/06/15 02:55:01;;;;;;;;;;;;;;;25.91;43.20;100391.50;4983120;28;832;-35
2021/06/15 02:57:27;;;;;;;;;;;;;;;25.89;43.21;100391.69;4982805;28;800;-31
2021/06/15 02:59:53;;;;;;;;;;;;;;;25.85;43.36;100392.25;5000153;28;965;-36
2021/06/15 03:02:18;;;;;;;;;;;;;;;25.92;43.15;100399.41;4983467;28;836;-31
2021/06/15 03:04:46;;;;;;;;;;;;;;;25.90;43.39;100400.63;5000201;28;789;-31
2021/06/15 03:07:11;;;;;;;;;;;;;;;25.90;43.16;100400.63;5000651;28;856;-34
2021/06/15 03:09:37;;;;;;;;;;;;;;;25.90;43.39;100404.16;5012628;28;1910;-36
2021/06/15 03:12:05;;;;;;;;;;;;;;;25.96;43.01;100399.88;5039536;28;780;-36
2021/06/15 03:14:30;;;;;;;;;;;;;;;25.91;43.26;100394.22;5033546;28;1138;-35
2021/06/15 03:16:56;;;;;;;;;;;;;;;25.97;43.36;100393.50;4983115;28;808;-32
2021/06/15 03:19:23;;;;;;;;;;;;;;;25.92;43.62;100390.50;5005003;28;880;-33
2021/06/15 03:21:49;;;;;;;;;;;;;;;25.94;43.39;100391.16;5002245;28;761;-35
2021/06/15 03:24:16;;;;;;;;;;;;;;;25.96;43.48;100394.50;5002400;28;859;-35
2021/06/15 03:26:45;;;;;;;;;;;;;;;25.65;42.54;100388.22;5001746;28;871;-37
2021/06/15 03:29:11;;;;;;;;;;;;;;;25.04;42.13;100386.31;5019165;28;2028;-32
2021/06/15 03:31:40;;;;;;;;;;;;;;;24.90;42.58;100379.78;4982393;28;1383;-32
2021/06/15 03:34:05;;;;;;;;;;;;;;;24.51;41.90;100379.63;4999513;28;836;-33
2021/06/15 03:36:31;;;;;;;;;;;;;;;23.82;42.39;100372.91;5000029;28;780;-34
2021/06/15 03:38:56;;;;;;;;;;;;;;;23.65;42.51;100374.75;5000117;28;756;-35
2021/06/15 03:41:22;;;;;;;;;;;;;;;23.48;42.62;100378.28;4981657;28;1031;-33
2021/06/15 03:43:51;;;;;;;;;;;;;;;23.22;43.00;100381.09;4999892;28;760;-32
2021/06/15 03:46:18;;;;;;;;;;;;;;;23.20;42.84;100385.78;4982074;28;957;-35
2021/06/15 03:48:44;;;;;;;;;;;;;;;22.98;43.41;100391.63;4999001;28;1902;-35
2021/06/15 03:51:09;;;;;;;;;;;;;;;22.70;44.05;100391.03;4999775;28;757;-36
2021/06/15 03:53:35;;;;;;;;;;;;;;;22.57;44.29;100392.25;4999369;28;1173;-32
2021/06/15 03:56:00;;;;;;;;;;;;;;;22.62;44.14;100391.84;4981496;28;898;-36
2021/06/15 03:58:26;;;;;;;;;;;;;;;22.83;44.01;100395.91;4999474;28;820;-38
2021/06/15 04:00:51;;;;;;;;;;;;;;;22.79;43.87;100398.06;4999087;28;913;-31
2021/06/15 04:03:17;;;;;;;;;;;;;;;22.61;44.06;100396.34;4981347;28;792;-32
2021/06/15 04:05:42;;;;;;;;;;;;;;;22.59;44.13;100387.59;4999488;28;756;-34
2021/06/15 04:08:11;;;;;;;;;;;;;;;22.54;44.25;100387.22;4982057;28;773;-33
2021/06/15 04:10:37;;;;;;;;;;;;;;;22.42;44.55;100383.16;5010012;28;1902;-32
2021/06/15 04:13:03;;;;;;;;;;;;;;;22.39;44.78;100379.78;5021127;28;804;-31
2021/06/15 04:15:28;;;;;;;;;;;;;;;22.33;44.63;100380.44;5013441;28;1180;-37
2021/06/15 04:17:57;;;;;;;;;;;;;;;22.18;45.08;100384.69;4981484;28;788;-36
2021/06/15 04:20:24;;;;;;;;;;;;;;;22.14;45.30;100390.38;4999100;28;805;-37
2021/06/15 04:22:49;;;;;;;;;;;;;;;21.97;45.53;100385.94;4998726;28;852;-33
2021/06/15 04:25:24;;;;;;;;;;;;;;;21.93;45.91;100389.91;4981534;28;784;-35
2021/06/15 04:27:49;;;;;;;;;;;;;;;22.04;45.59;100392.31;4981741;28;828;-31
2021/06/15 04:30:15;;;;;;;;;;;;;;;22.00;45.63;100393.66;4980725;28;1971;-32
2021/06/15 04:32:44;;;;;;;;;;;;;;;22.04;45.74;100394.19;4998422;28;788;-31
2021/06/15 04:35:09;;;;;;;;;;;;;;;22.02;45.72;100399.69;4981426;28;816;-32
2021/06/15 04:37:35;;;;;;;;;;;;;;;21.97;45.83;100404.69;4980976;28;779;-33
2021/06/15 04:40:18;;;;;;;;;;;;;;;21.89;46.05;100403.59;4980780;28;864;-32
2021/06/15 04:42:46;;;;;;;;;;;;;;;21.90;46.02;100405.28;4998779;28;745;-31
2021/06/15 04:45:11;;;;;;;;;;;;;;;22.72;44.85;100411.28;4980963;28;953;-35
2021/06/15 04:47:38;;;;;;;;;;;;;;;23.46;43.33;100409.84;4998663;28;769;-37
2021/06/15 04:50:06;;;;;;;;;;;;;;;23.75;42.93;100417.56;4998420;28;1911;-38
2021/06/15 04:52:32;;;;;;;;;;;;;;;23.90;42.67;100417.72;4981197;28;776;-35
2021/06/15 04:54:59;;;;;;;;;;;;;;;24.06;42.46;100415.00;4981072;28;732;-33
2021/06/15 04:57:26;;;;;;;;;;;;;;;24.17;42.38;100411.13;4981463;28;769;-33
2021/06/15 04:59:52;;;;;;;;;;;;;;;24.25;42.46;100415.69;4980098;28;1016;-34
2021/06/15 05:02:19;;;;;;;;;;;;;;;24.31;42.44;100414.13;4997872;28;860;-33
2021/06/15 05:04:49;;;;;;;;;;;;;;;24.34;42.21;100421.84;4998508;28;803;-32
2021/06/15 05:07:21;;;;;;;;;;;;;;;24.43;42.08;100422.69;4998295;28;777;-33
2021/06/15 05:09:49;;;;;;;;;;;;;;;24.45;42.11;100409.91;4994661;28;1969;-31
2021/06/15 05:12:14;;;;;;;;;;;;;;;24.50;42.07;100409.38;5019865;28;800;-33
2021/06/15 05:14:39;;;;;;;;;;;;;;;24.46;42.13;100412.41;5028411;28;1073;-35
2021/06/15 05:17:07;;;;;;;;;;;;;;;24.51;42.17;100405.66;4980740;28;785;-33
2021/06/15 05:19:36;;;;;;;;;;;;;;;24.57;42.08;100413.88;4998312;28;790;-34
2021/06/15 05:22:30;;;;;;;;;;;;;;;24.58;42.36;100398.59;4980223;28;1144;-34
2021/06/15 05:24:56;;;;;;;;;;;;;;;24.67;42.17;100407.47;4984701;28;1485;-32
2021/06/15 05:27:23;;;;;;;;;;;;;;;24.72;42.14;100399.72;4997797;28;763;-36
2021/06/15 05:29:48;;;;;;;;;;;;;;;24.89;41.62;100391.56;4997789;28;1975;-30
2021/06/15 05:32:13;;;;;;;;;;;;;;;24.90;41.87;100393.25;4997628;28;745;-36
2021/06/15 05:34:39;;;;;;;;;;;;;;;24.90;42.06;100391.41;4997878;28;804;-33
2021/06/15 05:37:04;;;;;;;;;;;;;;;24.98;41.92;100395.06;4997981;28;823;-32
2021/06/15 05:39:30;;;;;;;;;;;;;;;24.86;42.41;100392.75;4996859;28;780;-34
2021/06/15 05:41:58;;;;;;;;;;;;;;;24.89;42.39;100388.88;4997318;28;777;-33
2021/06/15 05:44:23;;;;;;;;;;;;;;;24.91;42.30;100390.41;4997222;28;929;-33
2021/06/15 05:46:49;;;;;;;;;;;;;;;25.02;42.01;100380.25;4997167;28;784;-31
2021/06/15 05:49:14;;;;;;;;;;;;;;;25.03;42.27;100390.00;4997642;28;1906;-34
2021/06/15 05:51:39;;;;;;;;;;;;;;;25.13;41.87;100398.69;4997562;28;823;-31
2021/06/15 05:54:05;;;;;;;;;;;;;;;25.15;42.42;100396.66;4996966;28;875;-32
2021/06/15 05:56:30;;;;;;;;;;;;;;;25.25;42.05;100395.56;4997218;28;1048;-34
2021/06/15 05:58:56;;;;;;;;;;;;;;;25.25;41.83;100400.97;4997130;28;796;-32
2021/06/15 06:01:21;;;;;;;;;;;;;;;25.22;42.55;100402.16;4996396;28;1004;-34
2021/06/15 06:03:55;;;;;;;;;;;;;;;25.27;42.38;100402.47;4997300;28;826;-30
2021/06/15 06:09:04;;;;;;;;;;;;;;;25.31;42.04;100401.09;5000042;28;1961;-34
2021/06/15 06:11:30;;;;;;;;;;;;;;;25.31;42.57;100397.53;5036605;28;832;-36
2021/06/15 06:13:55;;;;;;;;;;;;;;;25.40;41.94;100395.63;5036372;28;1077;-32
2021/06/15 06:16:20;;;;;;;;;;;;;;;25.39;42.05;100386.72;5000842;28;1004;-33
2021/06/15 06:18:45;;;;;;;;;;;;;;;25.40;42.50;100392.94;4997496;28;860;-32
2021/06/15 06:21:11;;;;;;;;;;;;;;;25.42;42.29;100393.59;4996875;28;783;-32
2021/06/15 06:23:37;;;;;;;;;;;;;;;25.48;42.48;100384.78;4996747;28;803;-36
2021/06/15 06:26:02;;;;;;;;;;;;;;;25.42;42.96;100388.22;4997189;28;789;-33
2021/06/15 06:28:28;;;;;;;;;;;;;;;25.51;42.98;100389.81;4996544;28;1972;-32
2021/06/15 06:30:53;;;;;;;;;;;;;;;25.55;42.54;100383.06;4996513;28;953;-32
2021/06/15 06:33:18;;;;;;;;;;;;;;;25.54;42.45;100384.06;4996924;28;753;-32
2021/06/15 06:35:43;;;;;;;;;;;;;;;25.62;42.19;100383.19;4996894;28;757;-33
2021/06/15 06:38:09;;;;;;;;;;;;;;;25.57;42.05;100388.28;4996747;28;899;-32
2021/06/15 06:40:34;;;;;;;;;;;;;;;25.60;42.03;100389.75;4997092;28;749;-34
2021/06/15 06:42:59;;;;;;;;;;;;;;;25.61;41.57;100380.66;4996503;28;853;-31
2021/06/15 06:45:25;;;;;;;;;;;;;;;25.65;42.38;100379.31;4996099;28;993;-33
2021/06/15 06:47:50;;;;;;;;;;;;;;;25.63;42.46;100382.19;4997020;28;839;-34
2021/06/15 06:50:16;;;;;;;;;;;;;;;25.67;42.54;100366.50;4996614;28;1940;-34
2021/06/15 06:52:41;;;;;;;;;;;;;;;25.62;42.10;100367.03;4996759;28;820;-33
2021/06/15 06:55:06;;;;;;;;;;;;;;;25.68;41.80;100371.69;4996548;28;880;-33
2021/06/15 06:57:32;;;;;;;;;;;;;;;25.61;41.69;100368.03;4996393;28;765;-34
2021/06/15 06:59:57;;;;;;;;;;;;;;;25.66;41.82;100367.50;4996216;28;1012;-30
2021/06/15 07:02:22;;;;;;;;;;;;;;;25.62;41.75;100371.56;4996344;28;813;-33
2021/06/15 07:04:48;;;;;;;;;;;;;;;25.64;41.67;100372.25;4996595;28;796;-33
2021/06/15 07:07:13;;;;;;;;;;;;;;;25.61;41.71;100367.19;4996956;28;736;-34
2021/06/15 07:09:38;;;;;;;;;;;;;;;25.55;42.22;100364.22;5008911;28;1958;-33
2021/06/15 07:12:04;;;;;;;;;;;;;;;25.59;42.24;100369.22;5035650;28;913;-33
2021/06/15 07:14:29;;;;;;;;;;;;;;;25.56;42.47;100383.88;5030388;28;1298;-34
2021/06/15 07:16:54;;;;;;;;;;;;;;;25.70;42.58;100389.53;4996090;28;511;-35
2021/06/15 07:19:19;;;;;;;;;;;;;;;25.74;42.80;100390.84;4996565;28;772;-34
2021/06/15 07:21:45;;;;;;;;;;;;;;;25.72;42.62;100395.56;4996574;28;739;-32
2021/06/15 07:24:10;;;;;;;;;;;;;;;25.66;42.59;100389.91;4996047;28;709;-35
2021/06/15 07:26:36;;;;;;;;;;;;;;;25.62;42.60;100396.66;4996565;28;844;-32
2021/06/15 07:29:01;;;;;;;;;;;;;;;25.53;42.31;100401.25;4996546;28;1906;-36
2021/06/15 07:31:27;;;;;;;;;;;;;;;25.72;42.28;100398.28;4996424;28;969;-32
2021/06/15 07:33:52;;;;;;;;;;;;;;;25.62;42.41;100393.09;4996235;28;768;-33
2021/06/15 07:36:17;;;;;;;;;;;;;;;25.59;42.38;100388.09;4997293;28;859;-33
2021/06/15 07:38:43;;;;;;;;;;;;;;;25.68;42.89;100389.72;4999657;28;773;-33
2021/06/15 07:41:08;;;;;;;;;;;;;;;25.83;43.25;100397.81;5014572;28;1149;-31
2021/06/15 07:43:34;;;;;;;;;;;;;;;25.92;43.59;100396.72;5039039;28;811;-36
2021/06/15 07:45:59;;;;;;;;;;;;;;;25.99;43.55;100388.75;5009045;28;916;-32
2021/06/15 07:48:24;;;;;;;;;;;;;;;26.01;43.52;100373.22;4999894;28;753;-30
2021/06/15 07:50:49;;;;;;;;;;;;;;;26.07;43.23;100392.38;5000178;28;1969;-33
2021/06/15 07:53:16;;;;;;;;;;;;;;;26.06;43.48;100386.13;4999085;28;773;-35
2021/06/15 07:55:42;;;;;;;;;;;;;;;26.03;43.47;100390.06;4999783;28;835;-36
2021/06/15 07:58:07;;;;;;;;;;;;;;;26.12;43.38;100388.13;4999801;28;760;-33
2021/06/15 08:00:32;;;;;;;;;;;;;;;26.08;43.59;100394.88;4998802;28;1004;-33
2021/06/15 08:02:57;;;;;;;;;;;;;;;26.12;43.60;100395.34;4999345;28;840;-35
2021/06/15 08:05:23;;;;;;;;;;;;;;;26.15;43.59;100394.97;4999717;28;800;-35
2021/06/15 08:07:54;;;;;;;;;;;;;;;26.12;43.78;100398.91;4998978;28;796;-36
2021/06/15 08:10:20;;;;;;;;;;;;;;;26.13;43.44;100405.09;5023324;28;1902;-33
2021/06/15 08:12:46;;;;;;;;;;;;;;;26.18;43.24;100405.41;5038640;28;764;-32
2021/06/15 08:15:11;;;;;;;;;;;;;;;26.20;43.11;100406.06;5021008;28;1268;-34
2021/06/15 08:17:36;;;;;;;;;;;;;;;26.18;43.23;100400.00;4999530;28;749;-36
2021/06/15 08:20:02;;;;;;;;;;;;;;;26.24;42.99;100395.75;4999286;28;828;-35
2021/06/15 08:22:28;;;;;;;;;;;;;;;26.11;43.29;100396.41;4981437;28;1258;-33
2021/06/15 08:24:53;;;;;;;;;;;;;;;26.13;43.46;100395.19;4999024;28;884;-37
2021/06/15 08:27:18;;;;;;;;;;;;;;;26.27;43.08;100403.47;4999174;28;836;-32
2021/06/15 08:29:43;;;;;;;;;;;;;;;26.18;42.90;100408.09;4980484;28;1918;-35
2021/06/15 08:32:09;;;;;;;;;;;;;;;26.21;43.01;100405.03;4999203;28;816;-36
2021/06/15 08:34:35;;;;;;;;;;;;;;;26.24;42.82;100406.53;4998849;28;860;-32
2021/06/15 08:37:01;;;;;;;;;;;;;;;26.31;42.84;100401.22;4998229;28;800;-35
2021/06/15 08:39:26;;;;;;;;;;;;;;;26.28;42.65;100397.03;4998621;28;961;-32
2021/06/15 08:41:52;;;;;;;;;;;;;;;26.27;42.97;100400.75;4998954;28;756;-35
2021/06/15 08:44:17;;;;;;;;;;;;;;;26.31;42.63;100407.44;4997712;28;1004;-35
2021/06/15 08:46:42;;;;;;;;;;;;;;;26.26;42.79;100405.31;4998542;28;806;-36
2021/06/15 08:49:07;;;;;;;;;;;;;;;26.32;42.54;100390.25;4980332;28;1914;-32
2021/06/15 08:51:34;;;;;;;;;;;;;;;26.25;42.88;100408.19;4998358;28;847;-32
2021/06/15 08:54:05;;;;;;;;;;;;;;;26.28;42.55;100397.88;4998486;28;753;-33
2021/06/15 08:56:32;;;;;;;;;;;;;;;26.21;43.07;100393.41;4998878;28;829;-33
2021/06/15 08:58:57;;;;;;;;;;;;;;;26.24;42.80;100398.44;4998173;28;795;-36
2021/06/15 09:01:22;;;;;;;;;;;;;;;26.17;43.14;100401.84;4998301;28;953;-36
2021/06/15 09:03:49;;;;;;;;;;;;;;;26.23;42.94;100402.13;4998522;28;748;-35
2021/06/15 09:06:15;;;;;;;;;;;;;;;26.32;42.60;100395.66;4998086;28;836;-34
2021/06/15 09:08:49;;;;;;;;;;;;;;;26.14;42.14;100398.72;4998420;28;1954;-36
2021/06/15 09:11:15;;;;;;;;;;;;;;;26.49;41.71;100390.91;5037071;28;1192;-31
2021/06/15 09:13:40;;;;;;;;;;;;;;;26.64;41.50;100388.19;5036929;28;1452;-36
2021/06/15 09:16:23;;;;;;;;;;;;;;;26.69;41.30;100386.81;5006193;28;995;-32
2021/06/15 09:18:49;;;;;;;;;;;;;;;26.75;41.08;100381.50;4998129;28;755;-32
2021/06/15 09:21:23;;;;;;;;;;;;;;;26.88;41.15;100388.91;4980808;28;737;-32
2021/06/15 09:23:48;;;;;;;;;;;;;;;26.90;41.10;100389.56;4997982;28;836;-33
2021/06/15 09:26:13;;;;;;;;;;;;;;;26.88;40.94;100385.34;4997908;28;844;-35
2021/06/15 09:28:39;;;;;;;;;;;;;;;26.87;41.04;100381.84;4997649;28;1926;-32
2021/06/15 09:31:05;;;;;;;;;;;;;;;26.92;41.03;100381.25;4979840;28;1502;-32
2021/06/15 09:33:37;;;;;;;;;;;;;;;26.99;40.99;100379.44;4997693;28;793;-31
2021/06/15 09:36:21;;;;;;;;;;;;;;;26.89;41.41;100376.25;4997537;28;832;-35
2021/06/15 09:38:54;;;;;;;;;;;;;;;26.92;41.43;100373.16;4998117;28;815;-33
2021/06/15 09:41:38;;;;;;;;;;;;;;;26.93;40.99;100376.69;4997752;28;750;-34
2021/06/15 09:44:20;;;;;;;;;;;;;;;26.55;42.06;100358.81;4997219;28;864;-37
2021/06/15 09:46:48;;;;;;;;;;;;;;;26.52;42.18;100358.19;4997435;28;833;-31
2021/06/15 09:49:27;;;;;;;;;;;;;;;26.49;42.27;100350.44;5022589;28;1898;-33
2021/06/15 09:52:11;;;;;;;;;;;;;;;26.44;42.67;100350.22;5036698;28;808;-34
2021/06/15 09:54:40;;;;;;;;;;;;;;;26.41;42.76;100348.69;5036634;28;736;-31
2021/06/15 09:57:06;;;;;;;;;;;;;;;26.40;42.72;100343.50;5036629;28;844;-33
2021/06/15 09:59:31;;;;;;;;;;;;;;;26.35;42.94;100343.22;5030008;28;960;-32
2021/06/15 10:01:57;;;;;;;;;;;;;;;26.27;43.14;100336.91;4997367;28;860;-32
2021/06/15 10:04:23;;;;;;;;;;;;;;;26.26;43.38;100342.44;4997002;28;769;-31
2021/06/15 10:06:52;;;;;;;;;;;;;;;26.33;43.37;100334.47;4997056;28;851;-30
2021/06/15 10:09:47;;;;;;;;;;;;;;;26.38;43.31;100329.34;5003920;28;1894;-33
2021/06/15 10:12:12;;;;;;;;;;;;;;;26.33;43.45;100326.38;5019307;28;1338;-34
2021/06/15 10:14:38;;;;;;;;;;;;;;;26.34;43.13;100334.28;5028264;28;1692;-32
2021/06/15 10:17:03;;;;;;;;;;;;;;;26.40;43.32;100338.94;4997196;28;871;-35
2021/06/15 10:19:28;;;;;;;;;;;;;;;26.33;43.33;100343.41;4997356;28;785;-32
2021/06/15 10:21:54;;;;;;;;;;;;;;;26.36;43.34;100345.72;4996942;28;801;-35
2021/06/15 10:24:23;;;;;;;;;;;;;;;26.36;43.38;100347.63;4997241;28;789;-31
2021/06/15 10:26:48;;;;;;;;;;;;;;;26.37;42.94;100338.50;4996681;28;875;-33
2021/06/15 10:29:13;;;;;;;;;;;;;;;26.37;43.23;100346.56;4996341;28;1969;-32
2021/06/15 10:31:39;;;;;;;;;;;;;;;26.37;43.45;100342.03;4979933;28;737;-34
2021/06/15 10:34:04;;;;;;;;;;;;;;;26.39;43.36;100339.13;4997087;28;769;-31
2021/06/15 10:36:36;;;;;;;;;;;;;;;26.39;43.16;100336.44;4979448;28;824;-32
2021/06/15 10:39:02;;;;;;;;;;;;;;;26.38;43.20;100332.91;4997007;28;827;-36
2021/06/15 10:41:27;;;;;;;;;;;;;;;26.30;43.33;100332.97;4979313;28;1272;-32
2021/06/15 10:43:53;;;;;;;;;;;;;;;26.32;43.20;100330.09;4996518;28;795;-32
2021/06/15 10:46:19;;;;;;;;;;;;;;;26.29;43.59;100332.13;5013034;28;980;-34
2021/06/15 10:48:57;;;;;;;;;;;;;;;26.29;43.64;100326.72;5016177;28;1965;-32
2021/06/15 10:51:27;;;;;;;;;;;;;;;26.33;43.56;100329.94;5016212;28;724;-31
2021/06/15 10:53:52;;;;;;;;;;;;;;;26.29;43.31;100340.22;5016359;28;800;-33
2021/06/15 10:56:19;;;;;;;;;;;;;;;26.29;43.49;100337.53;5016062;28;817;-36
2021/06/15 10:58:47;;;;;;;;;;;;;;;26.28;43.57;100338.56;4998271;28;869;-34
2021/06/15 11:01:15;;;;;;;;;;;;;;;26.24;43.64;100328.34;4999023;28;1016;-32
2021/06/15 11:03:44;;;;;;;;;;;;;;;26.24;43.59;100331.84;4996883;28;768;-35
2021/06/15 11:06:10;;;;;;;;;;;;;;;26.34;43.31;100330.78;4996164;28;741;-31
2021/06/15 11:08:35;;;;;;;;;;;;;;;26.37;43.24;100327.69;4996788;28;856;-35
2021/06/15 11:11:03;;;;;;;;;;;;;;;26.38;43.49;100321.28;5031622;28;1879;-35
2021/06/15 11:13:38;;;;;;;;;;;;;;;26.34;43.52;100320.81;5039320;28;834;-33
2021/06/15 11:16:03;;;;;;;;;;;;;;;26.29;43.50;100318.66;4989197;28;1015;-30
2021/06/15 11:18:29;;;;;;;;;;;;;;;26.34;43.47;100320.81;4981366;28;809;-33
2021/06/15 11:20:54;;;;;;;;;;;;;;;26.31;43.34;100315.75;4980809;28;745;-35
2021/06/15 11:23:20;;;;;;;;;;;;;;;26.37;43.27;100314.22;4980578;28;1473;-33
2021/06/15 11:25:46;;;;;;;;;;;;;;;26.34;43.28;100310.03;4980825;28;809;-32
2021/06/15 11:28:30;;;;;;;;;;;;;;;26.25;43.10;100309.28;4980329;28;761;-34
2021/06/15 11:31:13;;;;;;;;;;;;;;;26.25;44.64;100308.44;4980371;28;1907;-33
2021/06/15 11:33:57;;;;;;;;;;;;;;;27.51;45.44;100303.72;4980548;28;852;-30
2021/06/15 11:36:41;;;;;;;;;;;;;;;28.08;41.17;100296.59;4980429;28;849;-32
2021/06/15 11:39:21;;;;;;;;;;;;;;;27.54;42.55;100296.25;4980707;28;753;-31
2021/06/15 11:42:05;;;;;;;;;;;;;;;27.34;44.98;100294.25;4980260;28;828;-31
2021/06/15 11:44:52;;;;;;;;;;;;;;;28.83;41.89;100295.81;4980114;28;961;-35
2021/06/15 11:47:27;;;;;;;;;;;;;;;27.93;41.89;100281.34;4980151;28;860;-32
2021/06/15 11:50:02;;;;;;;;;;;;;;;27.46;43.24;100276.44;4979672;28;1910;-34
2021/06/15 11:52:27;;;;;;;;;;;;;;;28.21;43.50;100271.50;4980384;28;875;-36
2021/06/15 11:54:53;;;;;;;;;;;;;;;28.38;41.57;100271.97;4962317;28;1097;-33
2021/06/15 11:57:18;;;;;;;;;;;;;;;27.97;42.64;100263.69;4962476;28;793;-33
2021/06/15 11:59:43;;;;;;;;;;;;;;;27.52;43.75;100264.03;4962481;28;962;-34
2021/06/15 12:02:08;;;;;;;;;;;;;;;28.03;44.23;100259.34;4980479;28;828;-34
2021/06/15 12:04:35;;;;;;;;;;;;;;;28.51;41.79;100256.84;4962502;28;774;-34
2021/06/15 12:07:16;;;;;;;;;;;;;;;28.04;42.48;100252.06;4980004;28;772;-32
2021/06/15 12:10:01;;;;;;;;;;;;;;;27.65;43.28;100254.34;4976089;28;1911;-33
2021/06/15 12:12:26;;;;;;;;;;;;;;;27.87;44.36;100255.97;5018857;28;884;-34
2021/06/15 12:14:51;;;;;;;;;;;;;;;28.91;41.73;100246.06;4999996;28;1220;-33
2021/06/15 12:17:18;;;;;;;;;;;;;;;28.24;42.21;100242.16;4999345;28;813;-32
2021/06/15 12:19:43;;;;;;;;;;;;;;;27.67;43.37;100233.34;4998794;28;817;-33
2021/06/15 12:22:15;;;;;;;;;;;;;;;27.21;42.71;100230.19;4998977;28;523;-35
2021/06/15 12:24:43;;;;;;;;;;;;;;;28.20;41.89;100227.38;4999107;28;828;-33
2021/06/15 12:27:18;;;;;;;;;;;;;;;28.18;40.39;100213.22;5023722;28;1105;-32
2021/06/15 12:29:43;;;;;;;;;;;;;;;28.06;40.87;100217.56;5014060;28;1982;-32
2021/06/15 12:32:09;;;;;;;;;;;;;;;28.65;40.84;100215.22;5017274;28;1000;-32
2021/06/15 12:34:34;;;;;;;;;;;;;;;28.75;40.02;100216.69;5016709;28;1048;-31
2021/06/15 12:37:03;;;;;;;;;;;;;;;28.41;40.56;100211.25;5016954;28;1028;-32
2021/06/15 12:39:29;;;;;;;;;;;;;;;28.28;42.00;100222.84;5009603;28;1031;-35
2021/06/15 12:41:56;;;;;;;;;;;;;;;29.28;39.38;100220.47;5006018;28;1127;-33
2021/06/15 12:44:25;;;;;;;;;;;;;;;27.90;40.27;100100.66;5004207;28;1107;-34
2021/06/15 12:46:55;;;;;;;;;;;;;;;28.28;41.08;100212.84;5016285;28;1089;-32
2021/06/15 12:49:21;;;;;;;;;;;;;;;28.96;40.40;100208.34;4998457;28;1910;-36
2021/06/15 12:51:58;;;;;;;;;;;;;;;28.88;39.72;100200.44;5016783;28;1000;-33
2021/06/15 12:54:25;;;;;;;;;;;;;;;28.65;40.01;100187.31;5015375;28;1048;-30
2021/06/15 12:56:53;;;;;;;;;;;;;;;28.35;40.81;100183.13;4997430;28;1061;-32
2021/06/15 12:59:19;;;;;;;;;;;;;;;29.09;39.93;100185.88;5015394;28;905;-31